Time;durP1;ratioP1;P1;durP2;ratioP2;P2;SDS_P1;SDS_P2;PMS_P1;PMS_P2;Temp;Humidity;BMP_temperature;BMP_pressure;BME280_temperature;BME280_humidity;BME280_pressure;Samples;Min_cycle;Max_cycle;Signal;HPM_P1;HPM_P2
2021/12/26 00:00:43;;;;;;;2.53;1.58;;;;;;;;;;5092647;28;20505;-69
2021/12/26 00:03:09;;;;;;;4.35;1.60;;;;;;;;;;5095193;28;20082;-68
2021/12/26 00:05:35;;;;;;;5.22;1.75;;;;;;;;;;5090804;28;20139;-68
2021/12/26 00:08:02;;;;;;;4.05;1.60;;;;;;;;;;5096555;28;20067;-68
2021/12/26 00:10:29;;;;;;;3.25;1.60;;;;;;;;;;5087139;28;20090;-68
2021/12/26 00:12:55;;;;;;;4.13;1.52;;;;;;;;;;5115250;28;20093;-69
2021/12/26 00:15:22;;;;;;;3.83;1.50;;;;;;;;;;5088341;28;20048;-68
2021/12/26 00:17:48;;;;;;;3.15;1.50;;;;;;;;;;5113835;28;20043;-68
2021/12/26 00:20:15;;;;;;;4.72;2.00;;;;;;;;;;5104940;27;20476;-68
2021/12/26 00:22:41;;;;;;;3.88;1.63;;;;;;;;;;5109986;28;20040;-68
2021/12/26 00:25:08;;;;;;;3.08;1.55;;;;;;;;;;5096455;28;20042;-68
2021/12/26 00:27:34;;;;;;;4.32;1.70;;;;;;;;;;5095812;28;20415;-68
2021/12/26 00:30:01;;;;;;;2.58;1.38;;;;;;;;;;5108705;28;20458;-68
2021/12/26 00:32:27;;;;;;;5.97;1.50;;;;;;;;;;5110412;28;20176;-68
2021/12/26 00:34:53;;;;;;;4.45;1.80;;;;;;;;;;5088588;28;20040;-68
2021/12/26 00:37:20;;;;;;;4.40;1.40;;;;;;;;;;5091387;28;20055;-68
2021/12/26 00:39:46;;;;;;;4.47;1.55;;;;;;;;;;5104672;28;20043;-68
2021/12/26 00:42:13;;;;;;;4.32;1.60;;;;;;;;;;5106225;28;20460;-67
2021/12/26 00:44:40;;;;;;;5.25;1.92;;;;;;;;;;5090018;28;20047;-67
2021/12/26 00:47:10;;;;;;;3.33;1.80;;;;;;;;;;5113067;28;20068;-68
2021/12/26 00:49:36;;;;;;;3.65;1.40;;;;;;;;;;5062334;28;20047;-68
2021/12/26 00:52:03;;;;;;;3.53;1.50;;;;;;;;;;5095877;28;20063;-68
2021/12/26 00:54:29;;;;;;;3.00;1.50;;;;;;;;;;5112793;27;20040;-68
2021/12/26 00:56:56;;;;;;;3.95;1.50;;;;;;;;;;5106231;27;20039;-69
2021/12/26 00:59:22;;;;;;;4.60;1.52;;;;;;;;;;5091489;28;20058;-69
2021/12/26 01:01:49;;;;;;;4.60;1.73;;;;;;;;;;5093543;28;20099;-69
2021/12/26 01:04:15;;;;;;;4.63;1.50;;;;;;;;;;5077668;28;20044;-69
2021/12/26 01:06:43;;;;;;;2.80;1.73;;;;;;;;;;5113325;28;20050;-68
2021/12/26 01:09:12;;;;;;;4.00;1.60;;;;;;;;;;5110597;28;20044;-69
2021/12/26 01:11:42;;;;;;;3.20;1.35;;;;;;;;;;5076501;28;20072;-68
2021/12/26 01:14:11;;;;;;;4.25;1.95;;;;;;;;;;5103306;28;20044;-68
2021/12/26 01:16:38;;;;;;;3.72;1.42;;;;;;;;;;5113745;28;20040;-68
2021/12/26 01:19:13;;;;;;;4.20;1.70;;;;;;;;;;5107850;28;20048;-68
2021/12/26 01:21:40;;;;;;;6.10;1.67;;;;;;;;;;5092805;28;20079;-69
2021/12/26 01:24:08;;;;;;;2.95;1.65;;;;;;;;;;5112064;28;20039;-68
2021/12/26 01:26:35;;;;;;;2.60;1.60;;;;;;;;;;5079121;28;20031;-70
2021/12/26 01:29:01;;;;;;;5.18;2.00;;;;;;;;;;5102805;28;20435;-69
2021/12/26 01:31:28;;;;;;;3.85;1.80;;;;;;;;;;5094979;28;20031;-68
2021/12/26 01:33:56;;;;;;;3.50;1.58;;;;;;;;;;5110922;28;20508;-68
2021/12/26 01:36:22;;;;;;;3.25;1.55;;;;;;;;;;5113817;28;20437;-69
2021/12/26 01:38:48;;;;;;;3.03;1.60;;;;;;;;;;5093891;28;20092;-68
2021/12/26 01:41:17;;;;;;;3.45;1.80;;;;;;;;;;5114074;27;20035;-69
2021/12/26 01:43:45;;;;;;;3.17;1.70;;;;;;;;;;5102037;28;20047;-69
2021/12/26 01:46:12;;;;;;;4.30;1.50;;;;;;;;;;5085425;28;20115;-69
2021/12/26 01:48:38;;;;;;;3.25;1.65;;;;;;;;;;5106332;28;20047;-69
2021/12/26 01:51:04;;;;;;;2.67;1.63;;;;;;;;;;5095317;28;20047;-68
2021/12/26 01:53:36;;;;;;;3.15;1.90;;;;;;;;;;5112916;28;20070;-68
2021/12/26 01:56:04;;;;;;;5.28;1.83;;;;;;;;;;5077233;28;20491;-68
2021/12/26 01:58:31;;;;;;;3.85;1.70;;;;;;;;;;5112597;28;20035;-68
2021/12/26 02:00:59;;;;;;;2.55;1.60;;;;;;;;;;5111532;27;20054;-68
2021/12/26 02:03:26;;;;;;;3.25;1.98;;;;;;;;;;5094305;28;20040;-68
2021/12/26 02:05:52;;;;;;;6.03;1.73;;;;;;;;;;5112550;28;20088;-68
2021/12/26 02:08:18;;;;;;;3.85;1.65;;;;;;;;;;5076443;28;20114;-68
2021/12/26 02:10:44;;;;;;;3.55;1.63;;;;;;;;;;5113476;28;20087;-68
2021/12/26 02:13:10;;;;;;;3.70;1.80;;;;;;;;;;5112068;27;20035;-67
2021/12/26 02:15:37;;;;;;;3.20;1.92;;;;;;;;;;5112086;28;20118;-68
2021/12/26 02:18:04;;;;;;;5.32;1.60;;;;;;;;;;5109288;28;20668;-68
2021/12/26 02:23:29;;;;;;;3.75;1.70;;;;;;;;;;5092173;27;20048;-67
2021/12/26 02:28:37;;;;;;;4.18;2.00;;;;;;;;;;5107376;28;20140;-68
2021/12/26 02:31:03;;;;;;;4.35;1.50;;;;;;;;;;5112000;28;20095;-68
2021/12/26 02:33:30;;;;;;;3.22;1.60;;;;;;;;;;5087877;28;20047;-67
2021/12/26 02:35:56;;;;;;;3.13;1.80;;;;;;;;;;5093368;28;20054;-67
2021/12/26 02:38:22;;;;;;;3.80;1.80;;;;;;;;;;5076853;28;20080;-68
2021/12/26 02:40:51;;;;;;;3.05;1.52;;;;;;;;;;5109880;27;20044;-68
2021/12/26 02:43:19;;;;;;;3.95;1.92;;;;;;;;;;5111488;28;20165;-68
2021/12/26 02:45:45;;;;;;;2.63;1.60;;;;;;;;;;5109898;28;20071;-67
2021/12/26 02:48:12;;;;;;;5.53;1.70;;;;;;;;;;5092941;28;20091;-68
2021/12/26 02:50:39;;;;;;;3.28;1.50;;;;;;;;;;5093198;28;20043;-68
2021/12/26 02:53:05;;;;;;;4.00;1.60;;;;;;;;;;5092424;28;20501;-68
2021/12/26 02:55:31;;;;;;;3.80;1.55;;;;;;;;;;5093410;28;20510;-68
2021/12/26 02:58:05;;;;;;;3.53;1.27;;;;;;;;;;5090193;28;20047;-68
2021/12/26 03:00:33;;;;;;;4.60;1.73;;;;;;;;;;5086482;28;20168;-67
2021/12/26 03:03:00;;;;;;;3.88;2.10;;;;;;;;;;5111435;28;20031;-68
2021/12/26 03:05:29;;;;;;;2.35;1.60;;;;;;;;;;5093670;28;20047;-67
2021/12/26 03:07:55;;;;;;;4.88;1.77;;;;;;;;;;5082981;28;20046;-67
2021/12/26 03:10:23;;;;;;;4.53;1.63;;;;;;;;;;5093698;28;20112;-67
2021/12/26 03:12:50;;;;;;;4.20;1.75;;;;;;;;;;5085221;28;20050;-67
2021/12/26 03:15:17;;;;;;;3.13;1.45;;;;;;;;;;5093859;28;20520;-67
2021/12/26 03:17:43;;;;;;;5.22;1.52;;;;;;;;;;5112156;28;20082;-68
2021/12/26 03:20:10;;;;;;;3.88;1.52;;;;;;;;;;5112082;27;20046;-67
2021/12/26 03:22:36;;;;;;;3.47;1.73;;;;;;;;;;5093632;28;20093;-67
2021/12/26 03:25:03;;;;;;;3.28;1.83;;;;;;;;;;5093432;28;20538;-67
2021/12/26 03:27:29;;;;;;;3.60;1.85;;;;;;;;;;5112262;28;20100;-68
2021/12/26 03:29:55;;;;;;;3.65;1.63;;;;;;;;;;5114156;28;20043;-67
2021/12/26 03:32:23;;;;;;;5.40;1.88;;;;;;;;;;5077591;28;20046;-67
2021/12/26 03:34:49;;;;;;;2.75;1.48;;;;;;;;;;5107707;28;20065;-67
2021/12/26 03:37:15;;;;;;;2.63;1.58;;;;;;;;;;5092512;28;20499;-67
2021/12/26 03:39:41;;;;;;;2.97;1.70;;;;;;;;;;5092470;28;20552;-67
2021/12/26 03:42:08;;;;;;;3.10;1.70;;;;;;;;;;5109996;28;20425;-67
2021/12/26 03:44:34;;;;;;;5.07;1.83;;;;;;;;;;5110460;28;20052;-67
2021/12/26 03:47:00;;;;;;;2.38;1.65;;;;;;;;;;5106856;28;20119;-68
2021/12/26 03:49:26;;;;;;;3.53;1.92;;;;;;;;;;5091522;28;20043;-67
2021/12/26 03:51:53;;;;;;;3.55;1.70;;;;;;;;;;5111730;28;20031;-67
2021/12/26 03:54:19;;;;;;;3.17;1.80;;;;;;;;;;5083480;28;20071;-67
2021/12/26 03:56:45;;;;;;;3.78;1.90;;;;;;;;;;5092782;28;20122;-67
2021/12/26 03:59:11;;;;;;;4.63;1.70;;;;;;;;;;5075737;28;20458;-67
2021/12/26 04:01:37;;;;;;;3.10;1.60;;;;;;;;;;5075354;28;20092;-67
2021/12/26 04:04:04;;;;;;;2.55;1.83;;;;;;;;;;5072403;28;20490;-68
2021/12/26 04:06:30;;;;;;;3.50;1.60;;;;;;;;;;5087424;28;20043;-67
2021/12/26 04:08:56;;;;;;;2.38;1.65;;;;;;;;;;5085568;28;20075;-68
2021/12/26 04:11:22;;;;;;;3.78;1.75;;;;;;;;;;5086662;28;20036;-67
2021/12/26 04:13:48;;;;;;;3.92;1.63;;;;;;;;;;5082067;28;20044;-67
2021/12/26 04:16:15;;;;;;;2.60;1.48;;;;;;;;;;5105452;28;20372;-67
2021/12/26 04:18:41;;;;;;;2.90;1.55;;;;;;;;;;5105322;28;20036;-68
2021/12/26 04:21:07;;;;;;;3.30;1.85;;;;;;;;;;5093575;28;20112;-67
2021/12/26 04:23:33;;;;;;;2.78;1.75;;;;;;;;;;5109415;28;20126;-67
2021/12/26 04:25:59;;;;;;;3.80;1.92;;;;;;;;;;5086770;28;20039;-67
2021/12/26 04:28:26;;;;;;;3.67;1.90;;;;;;;;;;5110937;28;20484;-68
2021/12/26 04:30:53;;;;;;;5.07;2.00;;;;;;;;;;5103732;28;20056;-67
2021/12/26 04:33:19;;;;;;;2.90;1.85;;;;;;;;;;5110147;28;20054;-67
2021/12/26 04:35:46;;;;;;;3.85;1.98;;;;;;;;;;5090568;28;20122;-67
2021/12/26 04:38:12;;;;;;;3.50;1.98;;;;;;;;;;5082909;28;20040;-67
2021/12/26 04:40:38;;;;;;;2.88;1.90;;;;;;;;;;5087370;28;20040;-67
2021/12/26 04:43:04;;;;;;;3.40;1.77;;;;;;;;;;5107998;28;20031;-67
2021/12/26 04:45:30;;;;;;;4.15;2.08;;;;;;;;;;5090845;28;20052;-67
2021/12/26 04:48:00;;;;;;;4.65;2.20;;;;;;;;;;5086928;28;20105;-67
2021/12/26 04:50:28;;;;;;;3.78;1.80;;;;;;;;;;5094793;28;20050;-67
2021/12/26 04:52:54;;;;;;;3.85;1.90;;;;;;;;;;5093478;28;20043;-67
2021/12/26 04:55:22;;;;;;;4.05;2.20;;;;;;;;;;5091298;28;20130;-68
2021/12/26 04:57:48;;;;;;;5.38;2.00;;;;;;;;;;5111997;28;20142;-67
2021/12/26 05:00:16;;;;;;;4.05;2.17;;;;;;;;;;5106959;28;20047;-67
2021/12/26 05:02:42;;;;;;;2.95;1.65;;;;;;;;;;5089757;28;20036;-67
2021/12/26 05:05:09;;;;;;;4.32;2.20;;;;;;;;;;5089641;28;20069;-67
2021/12/26 05:07:36;;;;;;;4.38;2.13;;;;;;;;;;5126210;27;20043;-68
2021/12/26 05:10:02;;;;;;;4.97;2.22;;;;;;;;;;5090882;28;20035;-67
2021/12/26 05:12:28;;;;;;;4.00;2.05;;;;;;;;;;5091368;28;20050;-67
2021/12/26 05:14:54;;;;;;;4.38;2.13;;;;;;;;;;5094965;28;20060;-67
2021/12/26 05:17:20;;;;;;;4.78;2.60;;;;;;;;;;5109059;28;20065;-67
2021/12/26 05:19:46;;;;;;;5.97;2.00;;;;;;;;;;5114410;27;20433;-67
2021/12/26 05:22:12;;;;;;;4.50;2.53;;;;;;;;;;5087462;28;20528;-67
2021/12/26 05:24:39;;;;;;;4.10;2.30;;;;;;;;;;5093969;28;20044;-67
2021/12/26 05:27:05;;;;;;;3.63;2.17;;;;;;;;;;5094448;28;20126;-67
2021/12/26 05:29:31;;;;;;;6.28;2.40;;;;;;;;;;5113782;28;20058;-68
2021/12/26 05:31:58;;;;;;;7.25;2.22;;;;;;;;;;5108928;27;20513;-67
2021/12/26 05:34:24;;;;;;;4.72;2.17;;;;;;;;;;5125946;27;20130;-67
2021/12/26 05:36:50;;;;;;;5.10;2.40;;;;;;;;;;5095245;28;20043;-67
2021/12/26 05:39:16;;;;;;;4.38;2.30;;;;;;;;;;5088640;28;20066;-67
2021/12/26 05:41:42;;;;;;;4.85;2.25;;;;;;;;;;5088608;28;20502;-67
2021/12/26 05:44:09;;;;;;;4.80;2.50;;;;;;;;;;5113564;28;20044;-67
2021/12/26 05:46:36;;;;;;;5.20;2.20;;;;;;;;;;5128164;27;20047;-67
2021/12/26 05:49:02;;;;;;;4.07;2.20;;;;;;;;;;5093570;28;20119;-67
2021/12/26 05:51:28;;;;;;;3.42;1.88;;;;;;;;;;5086834;28;20067;-67
2021/12/26 05:53:54;;;;;;;4.65;2.63;;;;;;;;;;5113182;28;20039;-67
2021/12/26 05:56:20;;;;;;;4.65;2.65;;;;;;;;;;5094866;28;20052;-67
2021/12/26 05:58:46;;;;;;;4.53;2.15;;;;;;;;;;5113004;28;20464;-67
2021/12/26 06:01:12;;;;;;;3.90;2.20;;;;;;;;;;5113073;28;20447;-67
2021/12/26 06:03:39;;;;;;;4.63;2.42;;;;;;;;;;5090325;28;20039;-67
2021/12/26 06:06:05;;;;;;;6.32;2.80;;;;;;;;;;5109618;28;20216;-68
2021/12/26 06:08:32;;;;;;;6.65;2.88;;;;;;;;;;5112503;27;20040;-67
2021/12/26 06:10:58;;;;;;;5.32;2.55;;;;;;;;;;5113802;27;20080;-67
2021/12/26 06:13:24;;;;;;;4.88;2.30;;;;;;;;;;5092204;28;20081;-67
2021/12/26 06:15:50;;;;;;;4.13;2.30;;;;;;;;;;5106033;28;20063;-67
2021/12/26 06:18:16;;;;;;;3.92;2.35;;;;;;;;;;5088077;28;20051;-67
2021/12/26 06:20:42;;;;;;;5.72;2.17;;;;;;;;;;5108268;27;20028;-67
2021/12/26 06:23:09;;;;;;;4.45;2.22;;;;;;;;;;5110175;28;20058;-68
2021/12/26 06:25:35;;;;;;;4.05;2.17;;;;;;;;;;5109378;28;20044;-68
2021/12/26 06:28:02;;;;;;;6.07;2.33;;;;;;;;;;5105974;28;20048;-67
2021/12/26 06:30:28;;;;;;;7.82;3.08;;;;;;;;;;5090420;28;20160;-67
2021/12/26 06:32:54;;;;;;;3.33;2.10;;;;;;;;;;5091782;28;20078;-67
2021/12/26 06:35:20;;;;;;;4.10;2.35;;;;;;;;;;5108646;28;20048;-68
2021/12/26 06:37:46;;;;;;;4.50;2.20;;;;;;;;;;5105541;27;20101;-67
2021/12/26 06:40:13;;;;;;;4.72;2.55;;;;;;;;;;5111500;27;20114;-67
2021/12/26 06:42:44;;;;;;;3.35;1.90;;;;;;;;;;5087924;28;20051;-67
2021/12/26 06:45:12;;;;;;;5.05;2.28;;;;;;;;;;5113143;27;20083;-67
2021/12/26 06:47:38;;;;;;;5.60;2.30;;;;;;;;;;5112433;28;20040;-68
2021/12/26 06:50:05;;;;;;;5.18;2.80;;;;;;;;;;5085726;28;20039;-68
2021/12/26 06:52:31;;;;;;;5.25;2.72;;;;;;;;;;5094514;28;20680;-67
2021/12/26 06:54:57;;;;;;;5.15;2.60;;;;;;;;;;5086823;28;20403;-67
2021/12/26 06:57:23;;;;;;;4.18;2.28;;;;;;;;;;5111777;27;20074;-67
2021/12/26 06:59:49;;;;;;;5.47;2.30;;;;;;;;;;5105764;28;20043;-67
2021/12/26 07:02:16;;;;;;;6.88;2.40;;;;;;;;;;5092459;28;20040;-67
2021/12/26 07:04:42;;;;;;;4.47;2.15;;;;;;;;;;5090275;28;20079;-67
2021/12/26 07:07:08;;;;;;;4.25;2.35;;;;;;;;;;5086700;28;20040;-67
2021/12/26 07:09:34;;;;;;;4.90;2.30;;;;;;;;;;5103601;28;20047;-67
2021/12/26 07:12:00;;;;;;;3.55;2.20;;;;;;;;;;5107032;28;20040;-68
2021/12/26 07:14:26;;;;;;;3.35;2.15;;;;;;;;;;5110773;28;20046;-67
2021/12/26 07:16:52;;;;;;;3.53;2.10;;;;;;;;;;5093546;28;20039;-67
2021/12/26 07:19:18;;;;;;;8.32;3.05;;;;;;;;;;5089669;28;20101;-67
2021/12/26 07:21:44;;;;;;;4.85;2.33;;;;;;;;;;5091434;28;20071;-67
2021/12/26 07:24:10;;;;;;;5.03;2.70;;;;;;;;;;5111670;28;20369;-67
2021/12/26 07:26:36;;;;;;;4.88;2.47;;;;;;;;;;5111509;28;20035;-67
2021/12/26 07:29:03;;;;;;;5.28;2.55;;;;;;;;;;5111147;28;20509;-67
2021/12/26 07:31:29;;;;;;;6.45;2.63;;;;;;;;;;5092776;28;20047;-67
2021/12/26 07:33:55;;;;;;;7.72;3.08;;;;;;;;;;5093496;28;20047;-67
2021/12/26 07:36:21;;;;;;;8.95;2.70;;;;;;;;;;5126719;27;20064;-67
2021/12/26 07:38:48;;;;;;;5.68;2.70;;;;;;;;;;5108978;28;20036;-67
2021/12/26 07:41:14;;;;;;;4.60;2.55;;;;;;;;;;5110300;28;20036;-67
2021/12/26 07:43:40;;;;;;;4.88;2.60;;;;;;;;;;5093158;28;20078;-67
2021/12/26 07:46:06;;;;;;;4.47;2.70;;;;;;;;;;5090694;28;20067;-67
2021/12/26 07:48:32;;;;;;;6.05;3.03;;;;;;;;;;5109659;28;20035;-67
2021/12/26 07:50:58;;;;;;;4.30;2.47;;;;;;;;;;5092935;28;20096;-67
2021/12/26 07:53:24;;;;;;;5.90;2.50;;;;;;;;;;5091853;28;20039;-67
2021/12/26 07:55:50;;;;;;;5.07;2.30;;;;;;;;;;5112203;28;20104;-67
2021/12/26 07:58:17;;;;;;;3.53;2.47;;;;;;;;;;5093340;28;20048;-67
2021/12/26 08:00:44;;;;;;;5.95;3.30;;;;;;;;;;5092628;28;20177;-67
2021/12/26 08:03:11;;;;;;;5.25;2.67;;;;;;;;;;5110616;28;20043;-67
2021/12/26 08:05:37;;;;;;;5.63;3.00;;;;;;;;;;5109089;28;20040;-67
2021/12/26 08:08:03;;;;;;;4.88;2.90;;;;;;;;;;5090930;28;20040;-67
2021/12/26 08:10:29;;;;;;;5.95;2.88;;;;;;;;;;5093033;28;20028;-67
2021/12/26 08:12:55;;;;;;;10.18;3.17;;;;;;;;;;5094091;28;20039;-67
2021/12/26 08:15:21;;;;;;;5.47;2.83;;;;;;;;;;5090076;28;20058;-67
2021/12/26 08:17:47;;;;;;;4.93;2.80;;;;;;;;;;5091154;28;20492;-66
2021/12/26 08:20:13;;;;;;;5.55;2.78;;;;;;;;;;5091992;28;20433;-67
2021/12/26 08:22:39;;;;;;;6.32;3.22;;;;;;;;;;5108106;28;20043;-67
2021/12/26 08:25:06;;;;;;;6.97;3.33;;;;;;;;;;5094999;28;20100;-67
2021/12/26 08:27:32;;;;;;;5.45;2.85;;;;;;;;;;5113646;27;20084;-66
2021/12/26 08:29:59;;;;;;;8.65;3.70;;;;;;;;;;5112902;28;20062;-66
2021/12/26 08:32:26;;;;;;;4.82;3.00;;;;;;;;;;5096904;28;20043;-67
2021/12/26 08:34:52;;;;;;;6.32;3.13;;;;;;;;;;5096580;28;20062;-67
2021/12/26 08:37:18;;;;;;;6.50;3.35;;;;;;;;;;5095919;28;20043;-67
2021/12/26 08:39:46;;;;;;;6.43;3.05;;;;;;;;;;5113596;28;20078;-67
2021/12/26 08:42:13;;;;;;;7.68;3.10;;;;;;;;;;5096896;28;20051;-67
2021/12/26 08:44:40;;;;;;;6.00;3.35;;;;;;;;;;5112444;27;20440;-67
2021/12/26 08:47:07;;;;;;;5.65;3.40;;;;;;;;;;5078036;28;20130;-67
2021/12/26 08:49:34;;;;;;;8.13;3.53;;;;;;;;;;5097511;28;20040;-67
2021/12/26 08:52:00;;;;;;;5.40;2.95;;;;;;;;;;5114705;28;20035;-68
2021/12/26 08:54:28;;;;;;;6.28;2.95;;;;;;;;;;5097671;28;20130;-69
2021/12/26 08:56:54;;;;;;;5.38;3.10;;;;;;;;;;5093661;28;20055;-68
2021/12/26 08:59:24;;;;;;;6.38;3.10;;;;;;;;;;5114750;28;20162;-68
2021/12/26 09:01:50;;;;;;;6.00;3.25;;;;;;;;;;5091526;28;20104;-68
2021/12/26 09:04:16;;;;;;;5.78;3.13;;;;;;;;;;5095238;28;20054;-68
2021/12/26 09:06:42;;;;;;;7.20;3.55;;;;;;;;;;5096813;28;20069;-69
2021/12/26 09:09:10;;;;;;;6.45;3.10;;;;;;;;;;5095257;28;20044;-68
2021/12/26 09:11:36;;;;;;;5.10;3.20;;;;;;;;;;5077903;28;20138;-68
2021/12/26 09:14:02;;;;;;;5.30;2.97;;;;;;;;;;5079426;28;20073;-68
2021/12/26 09:16:33;;;;;;;7.82;4.00;;;;;;;;;;5096364;28;20043;-69
2021/12/26 09:18:59;;;;;;;6.30;3.38;;;;;;;;;;5095440;28;20403;-68
2021/12/26 09:21:25;;;;;;;6.07;3.17;;;;;;;;;;5108874;28;20043;-68
2021/12/26 09:23:51;;;;;;;4.68;3.30;;;;;;;;;;5095926;28;20122;-69
2021/12/26 09:26:17;;;;;;;5.30;3.10;;;;;;;;;;5078545;28;20122;-69
2021/12/26 09:28:44;;;;;;;8.60;3.70;;;;;;;;;;5091778;28;20043;-68
2021/12/26 09:31:10;;;;;;;4.88;3.35;;;;;;;;;;5095012;28;20040;-69
2021/12/26 09:33:36;;;;;;;7.50;3.30;;;;;;;;;;5091961;28;20036;-68
2021/12/26 09:36:02;;;;;;;6.97;3.63;;;;;;;;;;5093298;28;20046;-68
2021/12/26 09:38:28;;;;;;;5.60;2.97;;;;;;;;;;5091612;28;20035;-68
2021/12/26 09:40:55;;;;;;;5.03;3.38;;;;;;;;;;5090573;28;20043;-68
2021/12/26 09:43:21;;;;;;;5.70;3.38;;;;;;;;;;5112038;27;20042;-69
2021/12/26 09:45:47;;;;;;;5.15;3.00;;;;;;;;;;5094229;28;20123;-69
2021/12/26 09:48:13;;;;;;;6.38;3.45;;;;;;;;;;5107770;28;20476;-69
2021/12/26 09:50:39;;;;;;;4.03;2.90;;;;;;;;;;5094489;28;20549;-69
2021/12/26 09:53:06;;;;;;;6.65;3.58;;;;;;;;;;5093460;28;20077;-68
2021/12/26 09:55:32;;;;;;;19.45;7.82;;;;;;;;;;5111158;28;20055;-69
2021/12/26 09:57:58;;;;;;;6.03;3.08;;;;;;;;;;5088734;28;20036;-69
2021/12/26 10:00:30;;;;;;;7.93;3.40;;;;;;;;;;5094571;28;20062;-69
2021/12/26 10:03:09;;;;;;;6.50;3.10;;;;;;;;;;5109876;27;20131;-68
2021/12/26 10:05:53;;;;;;;6.78;3.38;;;;;;;;;;5093489;28;20040;-69
2021/12/26 10:08:19;;;;;;;9.05;3.40;;;;;;;;;;5124599;27;20055;-68
2021/12/26 10:11:04;;;;;;;6.43;3.53;;;;;;;;;;5094242;28;20067;-69
2021/12/26 10:13:56;;;;;;;5.70;3.30;;;;;;;;;;5094168;28;20065;-69
2021/12/26 10:16:24;;;;;;;6.38;3.60;;;;;;;;;;5090774;28;20098;-68
2021/12/26 10:18:51;;;;;;;7.72;3.92;;;;;;;;;;5091029;28;20071;-68
2021/12/26 10:21:29;;;;;;;5.30;3.47;;;;;;;;;;5090363;28;20083;-69
2021/12/26 10:23:57;;;;;;;11.43;5.30;;;;;;;;;;5091834;28;20044;-68
2021/12/26 10:26:28;;;;;;;6.97;4.03;;;;;;;;;;5091282;28;20039;-67
2021/12/26 10:29:05;;;;;;;9.45;4.60;;;;;;;;;;5089294;28;20055;-67
2021/12/26 10:31:31;;;;;;;9.40;4.55;;;;;;;;;;5073763;28;20070;-67
2021/12/26 10:33:57;;;;;;;8.70;4.10;;;;;;;;;;5089491;28;20040;-68
2021/12/26 10:36:23;;;;;;;5.93;3.30;;;;;;;;;;5087750;28;20040;-67
2021/12/26 10:39:09;;;;;;;8.43;4.88;;;;;;;;;;5088831;28;20097;-68
2021/12/26 10:41:46;;;;;;;7.55;4.40;;;;;;;;;;5088512;28;20071;-67
2021/12/26 10:44:19;;;;;;;9.18;4.78;;;;;;;;;;5093678;28;20446;-68
2021/12/26 10:46:50;;;;;;;8.10;4.50;;;;;;;;;;5088423;28;20119;-68
2021/12/26 10:49:23;;;;;;;8.57;4.28;;;;;;;;;;5091423;28;20050;-67
2021/12/26 10:51:49;;;;;;;8.13;4.00;;;;;;;;;;5079575;28;20097;-68
2021/12/26 10:54:16;;;;;;;7.38;4.47;;;;;;;;;;5089120;28;20118;-68
2021/12/26 10:56:42;;;;;;;6.07;3.60;;;;;;;;;;5090889;28;20036;-67
2021/12/26 10:59:20;;;;;;;5.75;3.63;;;;;;;;;;5090781;28;20078;-67
2021/12/26 11:01:48;;;;;;;6.82;4.18;;;;;;;;;;5085207;28;20146;-68
2021/12/26 11:04:14;;;;;;;5.90;3.50;;;;;;;;;;5090408;28;20093;-68
2021/12/26 11:07:00;;;;;;;6.15;3.40;;;;;;;;;;5074440;28;20047;-68
2021/12/26 11:09:26;;;;;;;5.72;4.13;;;;;;;;;;5090088;28;20039;-68
2021/12/26 11:11:59;;;;;;;8.50;4.45;;;;;;;;;;5085875;28;20063;-68
2021/12/26 11:14:25;;;;;;;7.07;3.85;;;;;;;;;;5072763;28;20093;-69
2021/12/26 11:16:52;;;;;;;5.25;3.63;;;;;;;;;;5090237;28;20044;-69
2021/12/26 11:19:38;;;;;;;7.13;3.70;;;;;;;;;;5094129;28;20480;-69
2021/12/26 11:22:04;;;;;;;7.40;3.90;;;;;;;;;;5085948;28;20131;-68
2021/12/26 11:24:30;;;;;;;7.50;3.65;;;;;;;;;;5090155;28;20127;-68
2021/12/26 11:26:56;;;;;;;9.80;4.22;;;;;;;;;;5090117;28;20044;-68
2021/12/26 11:29:22;;;;;;;7.28;4.15;;;;;;;;;;5084128;28;20056;-67
2021/12/26 11:31:50;;;;;;;6.85;4.07;;;;;;;;;;5085932;28;20500;-67
2021/12/26 11:34:17;;;;;;;8.38;3.80;;;;;;;;;;5089985;28;20062;-67
2021/12/26 11:36:44;;;;;;;6.57;4.20;;;;;;;;;;5090212;28;20044;-68
2021/12/26 11:39:10;;;;;;;7.72;3.72;;;;;;;;;;5085649;28;20087;-68
2021/12/26 11:41:47;;;;;;;8.48;4.45;;;;;;;;;;5089899;28;20051;-68
2021/12/26 11:44:32;;;;;;;7.70;4.00;;;;;;;;;;5089097;28;20483;-67
2021/12/26 11:46:59;;;;;;;5.82;3.92;;;;;;;;;;5083839;28;20399;-68
2021/12/26 11:49:33;;;;;;;7.53;4.90;;;;;;;;;;5088623;28;20428;-68
2021/12/26 11:52:03;;;;;;;9.05;4.07;;;;;;;;;;5087352;28;20531;-68
2021/12/26 11:54:47;;;;;;;5.57;4.00;;;;;;;;;;5086710;28;20048;-69
2021/12/26 11:57:35;;;;;;;7.22;4.25;;;;;;;;;;5069697;28;20046;-68
2021/12/26 12:00:06;;;;;;;7.45;4.28;;;;;;;;;;5092366;28;20050;-68
2021/12/26 12:02:38;;;;;;;6.88;4.20;;;;;;;;;;5075161;28;20043;-68
2021/12/26 12:05:11;;;;;;;7.95;4.65;;;;;;;;;;5090435;28;20083;-68
2021/12/26 12:08:09;;;;;;;7.03;4.65;;;;;;;;;;5091386;28;20039;-68
2021/12/26 12:10:43;;;;;;;8.70;4.90;;;;;;;;;;5059084;28;20068;-68
2021/12/26 12:13:15;;;;;;;7.60;4.65;;;;;;;;;;5087644;28;20055;-68
2021/12/26 12:15:46;;;;;;;8.32;4.50;;;;;;;;;;5089850;28;20105;-68
2021/12/26 12:18:15;;;;;;;7.07;4.13;;;;;;;;;;5075590;28;20075;-68
2021/12/26 12:20:42;;;;;;;7.40;4.35;;;;;;;;;;5090859;28;20093;-68
2021/12/26 12:23:08;;;;;;;12.13;6.43;;;;;;;;;;5090020;28;20039;-68
2021/12/26 12:25:34;;;;;;;11.07;5.88;;;;;;;;;;5085539;28;20066;-67
2021/12/26 12:28:09;;;;;;;8.85;4.75;;;;;;;;;;5092523;28;20040;-68
2021/12/26 12:30:35;;;;;;;11.80;5.25;;;;;;;;;;5091582;28;20048;-69
2021/12/26 12:33:25;;;;;;;9.77;4.63;;;;;;;;;;5075722;28;20482;-60
2021/12/26 12:35:54;;;;;;;8.30;4.85;;;;;;;;;;5089698;28;20117;-67
2021/12/26 12:38:22;;;;;;;8.32;4.63;;;;;;;;;;5090034;28;20070;-68
2021/12/26 12:40:48;;;;;;;8.38;5.05;;;;;;;;;;5091308;28;20111;-68
2021/12/26 12:43:16;;;;;;;8.68;4.60;;;;;;;;;;5091334;28;20074;-67
2021/12/26 12:46:05;;;;;;;8.10;4.95;;;;;;;;;;5074956;28;20040;-68
2021/12/26 12:48:33;;;;;;;8.18;4.30;;;;;;;;;;5084743;28;20040;-67
2021/12/26 12:51:18;;;;;;;7.95;4.97;;;;;;;;;;5087989;28;20046;-68
2021/12/26 12:53:45;;;;;;;6.90;4.63;;;;;;;;;;5091130;28;20039;-68
2021/12/26 12:56:30;;;;;;;8.05;4.90;;;;;;;;;;5091459;28;20484;-68
2021/12/26 12:59:23;;;;;;;7.45;4.82;;;;;;;;;;5091709;28;20085;-68
2021/12/26 13:02:10;;;;;;;7.35;4.57;;;;;;;;;;5089104;28;20131;-67
2021/12/26 13:04:45;;;;;;;7.75;4.60;;;;;;;;;;5087196;28;20113;-67
2021/12/26 13:07:15;;;;;;;7.60;4.65;;;;;;;;;;5088740;28;20048;-68
2021/12/26 13:09:46;;;;;;;6.95;4.82;;;;;;;;;;5089964;28;20044;-68
2021/12/26 13:12:13;;;;;;;8.02;4.97;;;;;;;;;;5090817;28;20043;-68
2021/12/26 13:14:42;;;;;;;8.48;5.05;;;;;;;;;;5083912;28;20048;-67
2021/12/26 13:17:14;;;;;;;8.73;5.30;;;;;;;;;;5083635;28;20043;-67
2021/12/26 13:19:40;;;;;;;8.48;5.15;;;;;;;;;;5091373;28;20043;-67
2021/12/26 13:22:06;;;;;;;7.47;4.72;;;;;;;;;;5090877;28;20055;-68
2021/12/26 13:24:38;;;;;;;8.98;5.07;;;;;;;;;;5090668;28;20063;-68
2021/12/26 13:27:04;;;;;;;8.07;4.97;;;;;;;;;;5090337;28;20039;-68
2021/12/26 13:29:31;;;;;;;7.78;5.10;;;;;;;;;;5090223;28;20051;-68
2021/12/26 13:31:57;;;;;;;8.52;4.85;;;;;;;;;;5086925;28;20044;-68
2021/12/26 13:34:23;;;;;;;10.18;5.15;;;;;;;;;;5088287;28;20058;-67
2021/12/26 13:36:49;;;;;;;11.00;6.63;;;;;;;;;;5083321;28;20043;-68
2021/12/26 13:39:25;;;;;;;14.32;7.60;;;;;;;;;;5090521;28;20539;-68
2021/12/26 13:41:53;;;;;;;10.10;6.32;;;;;;;;;;5082617;28;20048;-68
2021/12/26 13:44:20;;;;;;;7.90;4.72;;;;;;;;;;5086747;28;20059;-68
2021/12/26 13:46:47;;;;;;;7.25;4.93;;;;;;;;;;5087464;28;20498;-68
2021/12/26 13:49:14;;;;;;;8.63;5.32;;;;;;;;;;5085371;28;20052;-68
2021/12/26 13:51:41;;;;;;;9.30;5.05;;;;;;;;;;5091016;28;20031;-69
2021/12/26 13:54:16;;;;;;;7.47;4.90;;;;;;;;;;5078722;28;20056;-69
2021/12/26 13:56:46;;;;;;;12.55;5.15;;;;;;;;;;5088587;28;20071;-68
2021/12/26 13:59:31;;;;;;;7.90;5.05;;;;;;;;;;5081666;28;20089;-68
2021/12/26 14:01:58;;;;;;;10.90;4.95;;;;;;;;;;5072165;28;20051;-68
2021/12/26 14:04:25;;;;;;;8.48;5.13;;;;;;;;;;5070647;27;20072;-68
2021/12/26 14:06:51;;;;;;;8.82;5.22;;;;;;;;;;5073777;28;20040;-68
2021/12/26 14:09:17;;;;;;;8.75;5.35;;;;;;;;;;5070568;28;20040;-69
2021/12/26 14:11:43;;;;;;;7.55;4.80;;;;;;;;;;5080958;28;20587;-69
2021/12/26 14:14:10;;;;;;;10.63;5.18;;;;;;;;;;5083015;28;20047;-68
2021/12/26 14:16:43;;;;;;;8.13;5.00;;;;;;;;;;5068917;28;20039;-68
2021/12/26 14:19:11;;;;;;;7.95;4.80;;;;;;;;;;5083311;28;20058;-68
2021/12/26 14:21:44;;;;;;;8.63;5.22;;;;;;;;;;5083058;28;20068;-68
2021/12/26 14:24:11;;;;;;;9.70;5.15;;;;;;;;;;5075062;28;20041;-68
2021/12/26 14:26:40;;;;;;;7.88;4.80;;;;;;;;;;5083569;28;20089;-68
2021/12/26 14:29:08;;;;;;;10.13;5.75;;;;;;;;;;5078163;28;20076;-68
2021/12/26 14:31:37;;;;;;;9.30;5.57;;;;;;;;;;5080724;28;20048;-69
2021/12/26 14:34:11;;;;;;;9.13;5.40;;;;;;;;;;5092074;28;20040;-68
2021/12/26 14:36:47;;;;;;;9.25;5.30;;;;;;;;;;5080386;28;20048;-68
2021/12/26 14:39:13;;;;;;;10.38;5.75;;;;;;;;;;5088983;28;20040;-68
2021/12/26 14:41:39;;;;;;;8.68;5.15;;;;;;;;;;5089503;28;20046;-68
2021/12/26 14:44:11;;;;;;;10.02;5.78;;;;;;;;;;5067151;28;21951;-68
2021/12/26 14:46:37;;;;;;;9.07;5.70;;;;;;;;;;5084337;28;20040;-68
2021/12/26 14:49:11;;;;;;;9.45;5.38;;;;;;;;;;5075227;28;20032;-68
2021/12/26 14:51:37;;;;;;;8.57;5.65;;;;;;;;;;5075875;28;20124;-68
2021/12/26 14:54:05;;;;;;;8.43;5.18;;;;;;;;;;5072426;28;20043;-68